createdAt,value
2022-12-18T00:01:32.669Z,1.41
2022-12-18T00:04:03.477Z,0.13
2022-12-18T00:06:33.736Z,-1.14
2022-12-18T00:09:02.930Z,-0.84
2022-12-18T00:11:32.060Z,0.52
2022-12-18T00:14:00.981Z,1.08
2022-12-18T00:16:31.269Z,0.83
2022-12-18T00:19:01.136Z,-0.74
2022-12-18T00:21:30.871Z,-0.63
2022-12-18T00:24:00.572Z,0.71
2022-12-18T00:26:31.392Z,1.12
2022-12-18T00:29:03.175Z,-0.06
2022-12-18T00:31:32.294Z,-1.19
2022-12-18T00:34:02.707Z,-1.24
2022-12-18T00:36:34.310Z,0.17
2022-12-18T00:39:04.876Z,1.07
2022-12-18T00:41:51.869Z,1.08
2022-12-18T00:44:20.027Z,-0.19
2022-12-18T00:46:48.873Z,-1.24
2022-12-18T00:49:19.132Z,-0.78
2022-12-18T00:51:48.649Z,0.61
2022-12-18T00:54:17.523Z,1.61
2022-12-18T00:56:49.024Z,0.83
2022-12-18T00:59:19.018Z,-0.70
2022-12-18T01:01:47.624Z,-1.32
2022-12-18T01:04:16.393Z,0.23
2022-12-18T01:06:46.867Z,1.73
2022-12-18T01:09:15.084Z,1.48
2022-12-18T01:11:42.970Z,0.15
2022-12-18T01:14:12.611Z,-0.95
2022-12-18T01:16:40.824Z,-1.36
2022-12-18T01:19:08.783Z,0.07
2022-12-18T01:21:36.653Z,1.44
2022-12-18T01:24:07.301Z,2.08
2022-12-18T01:26:35.244Z,0.92
2022-12-18T01:29:04.185Z,-0.58
2022-12-18T01:31:35.138Z,-1.26
2022-12-18T01:34:06.140Z,0.52
2022-12-18T01:36:39.976Z,1.24
2022-12-18T01:39:12.331Z,0.07
2022-12-18T01:42:01.979Z,-1.29
2022-12-18T01:44:57.266Z,-0.75
2022-12-18T01:47:37.935Z,1.35
2022-12-18T01:50:16.879Z,0.81
2022-12-18T01:52:48.829Z,-0.70
2022-12-18T01:55:19.799Z,-1.38
2022-12-18T01:57:49.225Z,-0.04
2022-12-18T02:00:21.343Z,1.32
2022-12-18T02:02:49.517Z,2.03
2022-12-18T02:05:23.840Z,0.77
2022-12-18T02:07:51.928Z,-0.78
2022-12-18T02:10:30.154Z,-0.95
2022-12-18T02:13:10.969Z,0.78
2022-12-18T02:15:49.143Z,1.50
2022-12-18T02:18:46.432Z,0.25
2022-12-18T02:21:47.167Z,-1.05
2022-12-18T02:24:26.483Z,-1.15
2022-12-18T02:27:00.480Z,0.80
2022-12-18T02:29:50.524Z,2.53
2022-12-18T02:32:32.706Z,1.60
2022-12-18T02:35:05.680Z,-0.08
2022-12-18T02:37:36.195Z,-1.29
2022-12-18T02:40:06.422Z,-1.28
2022-12-18T02:42:34.795Z,0.98
2022-12-18T02:45:03.504Z,1.99
2022-12-18T02:47:39.421Z,0.53
2022-12-18T02:50:10.652Z,-0.92
2022-12-18T02:53:30.380Z,-1.48
2022-12-18T02:56:15.921Z,0.92
2022-12-18T02:58:59.014Z,2.62
2022-12-18T03:02:12.360Z,1.50
2022-12-18T03:05:03.850Z,-0.28
2022-12-18T03:07:47.145Z,-0.80
2022-12-18T03:10:21.354Z,1.44
2022-12-18T03:12:55.669Z,2.75
2022-12-18T03:15:30.112Z,1.25
2022-12-18T03:18:08.855Z,-0.40
2022-12-18T03:20:40.878Z,-1.02
2022-12-18T03:23:14.135Z,0.70
2022-12-18T03:25:44.867Z,2.46
2022-12-18T03:28:20.777Z,1.84
2022-12-18T03:31:00.654Z,0.19
2022-12-18T03:33:39.477Z,-1.05
2022-12-18T03:36:08.157Z,-1.24
2022-12-18T03:38:36.280Z,0.56
2022-12-18T03:41:16.692Z,2.13
2022-12-18T03:44:12.613Z,1.74
2022-12-18T03:46:56.136Z,0.03
2022-12-18T03:49:41.152Z,-1.17
2022-12-18T03:52:19.077Z,-1.51
2022-12-18T03:54:47.972Z,0.42
2022-12-18T03:57:20.712Z,2.06
2022-12-18T03:59:54.077Z,1.57
2022-12-18T04:02:24.911Z,-0.06
2022-12-18T04:04:57.956Z,-1.24
2022-12-18T04:07:26.386Z,-1.39
2022-12-18T04:09:57.706Z,0.44
2022-12-18T04:12:27.327Z,1.77
2022-12-18T04:14:55.481Z,2.27
2022-12-18T04:17:24.845Z,1.04
2022-12-18T04:19:53.109Z,-0.39
2022-12-18T04:22:21.965Z,-1.51
2022-12-18T04:24:53.489Z,-1.51
2022-12-18T04:27:29.400Z,0.56
2022-12-18T04:30:00.637Z,1.80
2022-12-18T04:32:28.632Z,2.28
2022-12-18T04:34:56.592Z,0.91
2022-12-18T04:37:24.858Z,-0.49
2022-12-18T04:39:52.985Z,-1.51
2022-12-18T04:42:26.931Z,-0.85
2022-12-18T04:44:54.817Z,0.74
2022-12-18T04:47:47.972Z,1.99
2022-12-18T04:50:15.933Z,1.00
2022-12-18T04:52:44.079Z,-0.55
2022-12-18T04:55:11.980Z,-1.63
2022-12-18T04:57:39.909Z,-1.89
2022-12-18T05:00:08.838Z,-0.31
2022-12-18T05:02:36.879Z,1.32
2022-12-18T05:05:05.565Z,2.39
2022-12-18T05:07:33.482Z,2.08
2022-12-18T05:10:01.708Z,0.52
2022-12-18T05:12:32.326Z,-0.69
2022-12-18T05:15:00.413Z,-1.57
2022-12-18T05:17:28.400Z,-1.63
2022-12-18T05:19:56.315Z,0.14
2022-12-18T05:22:24.239Z,1.82
2022-12-18T05:24:52.168Z,2.32
2022-12-18T05:27:21.672Z,0.99
2022-12-18T05:29:49.638Z,-0.41
2022-12-18T05:32:23.203Z,-1.01
2022-12-18T05:34:51.221Z,0.44
2022-12-18T05:37:19.256Z,2.00
2022-12-18T05:39:47.162Z,1.25
2022-12-18T05:42:15.416Z,-0.31
2022-12-18T05:44:44.713Z,-1.14
2022-12-18T05:47:12.571Z,0.22
2022-12-18T05:49:40.723Z,1.50
2022-12-18T05:52:08.777Z,2.43
2022-12-18T05:54:36.701Z,2.17
2022-12-18T05:57:04.653Z,0.62
2022-12-18T05:59:32.648Z,-0.61
2022-12-18T06:02:00.702Z,-1.08
2022-12-18T06:04:32.113Z,0.34
2022-12-18T06:07:00.330Z,1.77
2022-12-18T06:09:29.937Z,1.01
2022-12-18T06:11:57.900Z,-0.48
2022-12-18T06:14:25.861Z,-1.16
2022-12-18T06:16:53.880Z,0.29
2022-12-18T06:19:21.899Z,1.66
2022-12-18T06:21:51.310Z,1.12
2022-12-18T06:24:19.207Z,-0.33
2022-12-18T06:26:47.105Z,-1.45
2022-12-18T06:29:15.212Z,-1.69
2022-12-18T06:31:43.137Z,0.25
2022-12-18T06:34:11.828Z,1.82
2022-12-18T06:36:39.793Z,1.38
2022-12-18T06:39:07.844Z,-0.20
2022-12-18T06:41:37.168Z,-1.36
2022-12-18T06:44:05.116Z,-1.74
2022-12-18T06:46:33.337Z,0.13
2022-12-18T06:49:01.315Z,1.87
2022-12-18T06:51:29.425Z,2.48
2022-12-18T06:53:57.422Z,1.00
2022-12-18T06:56:25.319Z,-0.47
2022-12-18T06:58:53.608Z,-1.44
2022-12-18T07:01:22.292Z,-1.67
2022-12-18T07:03:57.951Z,0.17
2022-12-18T07:06:26.690Z,2.06
2022-12-18T07:08:55.148Z,2.70
2022-12-18T07:11:23.226Z,1.39
2022-12-18T07:13:51.197Z,0.07
2022-12-18T07:16:25.192Z,-0.82
2022-12-18T07:18:56.541Z,-1.46
2022-12-18T07:21:25.522Z,-1.45
2022-12-18T07:23:53.425Z,0.61
2022-12-18T07:26:22.837Z,2.33
2022-12-18T07:28:51.417Z,2.82
2022-12-18T07:31:22.242Z,1.40
2022-12-18T07:33:51.984Z,0.14
2022-12-18T07:36:20.935Z,-0.72
2022-12-18T07:38:50.249Z,-0.91
2022-12-18T07:41:18.196Z,0.89
2022-12-18T07:43:46.697Z,2.44
2022-12-18T07:46:16.731Z,2.79
2022-12-18T07:48:49.437Z,1.45
2022-12-18T07:51:19.692Z,0.09
2022-12-18T07:53:49.439Z,-0.95
2022-12-18T07:56:30.485Z,-1.16
2022-12-18T07:59:00.419Z,1.14
2022-12-18T08:01:28.850Z,3.07
2022-12-18T08:03:58.703Z,3.24
2022-12-18T08:06:26.785Z,1.76
2022-12-18T08:08:56.753Z,0.60
2022-12-18T08:11:26.885Z,-0.16
2022-12-18T08:13:55.192Z,-0.72
2022-12-18T08:16:25.044Z,-1.20
2022-12-18T08:18:54.870Z,-1.62
2022-12-18T08:21:29.351Z,-1.44
2022-12-18T08:24:00.143Z,1.17
2022-12-18T08:26:30.466Z,3.19
2022-12-18T08:28:59.847Z,2.38
2022-12-18T08:31:29.766Z,0.93
2022-12-18T08:33:58.315Z,-0.05
2022-12-18T08:36:26.503Z,-0.70
2022-12-18T08:38:55.508Z,-1.14
2022-12-18T08:41:23.680Z,-1.44
2022-12-18T08:44:10.667Z,-1.21
2022-12-18T08:46:40.932Z,1.45
2022-12-18T08:49:10.580Z,3.12
2022-12-18T08:51:39.742Z,2.12
2022-12-18T08:54:08.131Z,0.86
2022-12-18T08:56:36.141Z,0.01
2022-12-18T08:59:05.457Z,-0.63
2022-12-18T09:01:33.627Z,-1.06
2022-12-18T09:04:02.030Z,-0.99
2022-12-18T09:06:29.970Z,1.30
2022-12-18T09:08:58.456Z,2.52
2022-12-18T09:11:29.598Z,1.52
2022-12-18T09:13:59.192Z,0.51
2022-12-18T09:16:32.380Z,-0.12
2022-12-18T09:19:01.618Z,-0.63
2022-12-18T09:21:35.803Z,-0.54
2022-12-18T09:24:08.017Z,1.74
2022-12-18T09:26:37.731Z,2.76
2022-12-18T09:29:08.308Z,1.79
2022-12-18T09:31:37.174Z,0.72
2022-12-18T09:34:05.199Z,-0.09
2022-12-18T09:36:33.273Z,-0.62
2022-12-18T09:39:06.289Z,-1.14
2022-12-18T09:41:41.977Z,-1.22
2022-12-18T09:44:33.971Z,0.69
2022-12-18T09:47:19.056Z,3.22
2022-12-18T09:49:50.734Z,4.10
2022-12-18T09:52:42.298Z,2.83
2022-12-18T09:55:36.486Z,1.66
2022-12-18T09:58:19.929Z,0.98
2022-12-18T10:00:47.856Z,0.49
2022-12-18T10:03:17.297Z,0.20
2022-12-18T10:05:52.116Z,-0.09
2022-12-18T10:08:25.911Z,-0.44
2022-12-18T10:10:58.523Z,-0.78
2022-12-18T10:13:36.104Z,-0.97
2022-12-18T10:16:16.557Z,-0.96
2022-12-18T10:19:22.451Z,-0.99
2022-12-18T10:22:03.816Z,-0.56
2022-12-18T10:25:00.400Z,2.25
2022-12-18T10:27:29.675Z,2.74
2022-12-18T10:29:59.043Z,1.58
2022-12-18T10:32:30.388Z,0.77
2022-12-18T10:35:00.791Z,0.24
2022-12-18T10:37:30.931Z,-0.10
2022-12-18T10:40:15.476Z,-0.36
2022-12-18T10:43:04.220Z,-0.69
2022-12-18T10:45:32.275Z,-0.87
2022-12-18T10:48:00.238Z,-0.99
2022-12-18T10:51:09.099Z,-1.19
2022-12-18T10:53:28.698Z,-1.32
2022-12-18T10:55:59.842Z,-1.38
2022-12-18T10:58:32.578Z,-1.45
2022-12-18T11:01:08.173Z,-1.49
2022-12-18T11:03:42.494Z,-0.76
2022-12-18T11:06:19.829Z,1.94
2022-12-18T11:09:19.948Z,4.18
2022-12-18T11:11:53.474Z,3.57
2022-12-18T11:14:27.710Z,2.28
2022-12-18T11:17:24.440Z,1.48
2022-12-18T11:19:45.221Z,0.93
2022-12-18T11:22:27.636Z,0.49
2022-12-18T11:25:35.788Z,0.10
2022-12-18T11:28:05.750Z,-0.22
2022-12-18T11:30:36.070Z,-0.30
2022-12-18T11:33:31.124Z,-0.25
2022-12-18T11:36:04.813Z,-0.11
2022-12-18T11:38:40.388Z,0.04
2022-12-18T11:41:17.876Z,0.10
2022-12-18T11:43:56.873Z,0.31
2022-12-18T11:46:32.050Z,0.54
2022-12-18T11:49:07.304Z,0.70
2022-12-18T11:52:25.403Z,0.78
2022-12-18T11:54:56.670Z,0.94
2022-12-18T11:57:35.976Z,0.99
2022-12-18T12:00:36.620Z,1.01
2022-12-18T12:03:04.524Z,1.06
2022-12-18T12:05:37.762Z,1.10
2022-12-18T12:08:08.764Z,1.16
2022-12-18T12:11:08.665Z,1.16
2022-12-18T12:13:58.441Z,1.10
2022-12-18T12:16:34.638Z,1.18
2022-12-18T12:19:20.763Z,1.29
2022-12-18T12:22:05.076Z,1.37
2022-12-18T12:25:09.335Z,1.38
2022-12-18T12:28:08.184Z,1.40
2022-12-18T12:30:45.188Z,1.44
2022-12-18T12:33:34.830Z,1.46
2022-12-18T12:36:27.079Z,1.43
2022-12-18T12:39:06.463Z,1.41
2022-12-18T12:41:55.303Z,1.43
2022-12-18T12:44:28.605Z,1.39
2022-12-18T12:47:01.114Z,1.28
2022-12-18T12:52:35.943Z,1.10
2022-12-18T12:55:14.441Z,0.99
2022-12-18T12:57:47.416Z,0.93
2022-12-18T13:00:25.299Z,0.85
2022-12-18T13:03:05.378Z,0.76
2022-12-18T13:05:55.047Z,0.70
2022-12-18T13:08:25.430Z,0.65
2022-12-18T13:11:17.109Z,0.51
2022-12-18T13:13:43.500Z,1.19
2022-12-18T13:13:56.656Z,0.38
2022-12-18T13:16:26.815Z,0.31
2022-12-18T13:18:59.900Z,0.38
2022-12-18T13:21:32.061Z,0.73
2022-12-18T13:24:32.559Z,1.61
2022-12-18T13:27:00.524Z,3.12
2022-12-18T13:29:43.176Z,4.36
2022-12-18T13:32:22.948Z,5.53
2022-12-18T13:35:23.070Z,6.54
2022-12-18T13:37:54.358Z,7.17
2022-12-18T13:40:41.643Z,7.63
2022-12-18T13:43:18.670Z,8.06
2022-12-18T13:46:02.895Z,8.29
2022-12-18T13:48:36.615Z,8.35
2022-12-18T13:51:08.069Z,8.20
2022-12-18T13:53:58.571Z,8.13
2022-12-18T13:56:30.877Z,8.13
2022-12-18T13:59:34.892Z,8.07
2022-12-18T14:02:17.978Z,7.87
2022-12-18T14:04:48.059Z,7.62
2022-12-18T14:07:17.867Z,7.41
2022-12-18T14:09:55.645Z,7.19
2022-12-18T14:12:54.706Z,6.84
2022-12-18T14:15:35.126Z,6.09
2022-12-18T14:18:24.532Z,5.37
2022-12-18T14:20:55.854Z,4.74
2022-12-18T14:23:42.292Z,4.22
2022-12-18T14:26:46.520Z,3.69
2022-12-18T14:29:28.913Z,3.04
2022-12-18T14:32:17.890Z,2.44
2022-12-18T14:34:50.650Z,1.83
2022-12-18T14:37:23.599Z,1.23
2022-12-18T14:40:10.520Z,0.59
2022-12-18T14:42:39.159Z,-0.03
2022-12-18T14:45:44.363Z,-0.55
2022-12-18T14:48:12.564Z,-1.15
2022-12-18T14:50:42.025Z,-1.60
2022-12-18T14:53:34.004Z,-2.01
2022-12-18T14:56:14.849Z,-2.46
2022-12-18T14:58:53.289Z,-2.84
2022-12-18T15:01:35.289Z,-3.19
2022-12-18T15:04:04.778Z,-3.49
2022-12-18T15:06:38.284Z,-3.74
2022-12-18T15:09:25.238Z,-3.98
2022-12-18T15:12:01.408Z,-4.25
2022-12-18T15:14:39.818Z,-4.47
2022-12-18T15:17:19.074Z,-4.58
2022-12-18T15:19:49.196Z,-2.87
2022-12-18T15:22:30.716Z,-0.53
2022-12-18T15:25:04.202Z,1.27
2022-12-18T15:27:38.972Z,2.44
2022-12-18T15:30:09.979Z,3.10
2022-12-18T15:32:39.476Z,3.50
2022-12-18T15:35:15.785Z,3.91
2022-12-18T15:37:44.738Z,4.37
2022-12-18T15:40:20.171Z,4.64
2022-12-18T15:43:07.782Z,4.69
2022-12-18T15:45:36.937Z,4.78
2022-12-18T15:48:22.003Z,5.05
2022-12-18T15:50:55.282Z,4.25
2022-12-18T15:53:24.745Z,2.07
2022-12-18T15:56:11.198Z,0.33
2022-12-18T15:58:40.521Z,-1.11
2022-12-18T16:01:10.523Z,-2.11
2022-12-18T16:03:39.102Z,-2.93
2022-12-18T16:06:10.350Z,-3.59
2022-12-18T16:08:38.348Z,-4.09
2022-12-18T16:11:39.407Z,-4.51
2022-12-18T16:14:21.553Z,-3.62
2022-12-18T16:16:53.689Z,-0.88
2022-12-18T16:19:22.678Z,0.61
2022-12-18T16:21:53.202Z,1.39
2022-12-18T16:24:30.480Z,1.94
2022-12-18T16:27:24.618Z,2.20
2022-12-18T16:29:52.537Z,2.50
2022-12-18T16:32:24.541Z,2.69
2022-12-18T16:34:52.753Z,2.88
2022-12-18T16:37:20.800Z,2.98
2022-12-18T16:39:48.778Z,2.96
2022-12-18T16:42:45.301Z,3.00
2022-12-18T16:45:16.405Z,2.92
2022-12-18T16:47:44.881Z,2.67
2022-12-18T16:50:13.165Z,2.47
2022-12-18T16:52:44.041Z,2.64
2022-12-18T16:55:12.030Z,2.82
2022-12-18T16:57:40.011Z,2.91
2022-12-18T17:00:09.813Z,2.93
2022-12-18T17:02:37.959Z,2.99
2022-12-18T17:05:06.424Z,2.98
2022-12-18T17:07:34.511Z,3.16
2022-12-18T17:10:06.733Z,3.43
2022-12-18T17:12:34.737Z,3.35
2022-12-18T17:15:03.252Z,3.25
2022-12-18T17:17:31.294Z,3.14
2022-12-18T17:19:59.641Z,3.15
2022-12-18T17:22:28.205Z,3.08
2022-12-18T17:24:56.456Z,2.97
2022-12-18T17:27:24.396Z,3.65
2022-12-18T17:29:52.322Z,4.66
2022-12-18T17:32:20.223Z,5.24
2022-12-18T17:34:48.486Z,3.81
2022-12-18T17:37:16.513Z,1.55
2022-12-18T17:39:44.605Z,-0.36
2022-12-18T17:42:15.317Z,-1.80
2022-12-18T17:44:44.376Z,-2.66
2022-12-18T17:47:15.354Z,-3.52
2022-12-18T17:49:43.283Z,-4.31
2022-12-18T17:52:11.458Z,-3.92
2022-12-18T17:54:42.055Z,-1.27
2022-12-18T17:57:12.120Z,-0.04
2022-12-18T17:59:43.711Z,-1.42
2022-12-18T18:02:12.300Z,-2.79
2022-12-18T18:04:40.609Z,-3.81
2022-12-18T18:07:17.971Z,-4.07
2022-12-18T18:09:46.321Z,-1.99
2022-12-18T18:12:32.627Z,-0.47
2022-12-18T18:15:00.588Z,-1.31
2022-12-18T18:17:28.970Z,-2.84
2022-12-18T18:19:58.939Z,-3.99
2022-12-18T18:22:27.141Z,-4.65
2022-12-18T18:24:55.490Z,-3.30
2022-12-18T18:27:23.644Z,-1.63
2022-12-18T18:29:51.768Z,0.25
2022-12-18T18:32:19.750Z,1.37
2022-12-18T18:34:49.816Z,2.14
2022-12-18T18:37:18.105Z,2.36
2022-12-18T18:39:46.171Z,2.19
2022-12-18T18:42:14.947Z,2.39
2022-12-18T18:44:48.604Z,2.14
2022-12-18T18:47:24.186Z,2.07
2022-12-18T18:49:52.203Z,1.88
2022-12-18T18:52:20.193Z,1.99
2022-12-18T18:55:11.787Z,2.19
2022-12-18T18:57:37.341Z,2.24
2022-12-18T19:00:09.956Z,2.34
2022-12-18T19:02:52.163Z,2.25
2022-12-18T19:05:33.140Z,2.40
2022-12-18T19:08:01.303Z,2.45
2022-12-18T19:10:29.887Z,2.34
2022-12-18T19:13:17.512Z,2.33
2022-12-18T19:15:46.069Z,2.13
2022-12-18T19:18:14.932Z,2.35
2022-12-18T19:20:43.122Z,2.38
2022-12-18T19:23:11.066Z,2.34
2022-12-18T19:25:42.698Z,2.12
2022-12-18T19:28:19.282Z,2.02
2022-12-18T19:30:55.374Z,2.31
2022-12-18T19:33:45.207Z,2.23
2022-12-18T19:36:23.016Z,2.25
2022-12-18T19:38:53.567Z,2.26
2022-12-18T19:41:25.638Z,2.18
2022-12-18T19:43:55.592Z,2.16
2022-12-18T19:46:24.599Z,2.33
2022-12-18T19:48:54.900Z,2.39
2022-12-18T19:51:29.856Z,2.35
2022-12-18T19:54:01.635Z,2.28
2022-12-18T19:56:35.087Z,2.42
2022-12-18T19:59:04.945Z,2.56
2022-12-18T20:01:35.962Z,2.65
2022-12-18T20:04:04.464Z,2.58
2022-12-18T20:06:53.389Z,2.35
2022-12-18T20:09:24.904Z,2.48
2022-12-18T20:11:56.124Z,2.72
2022-12-18T20:14:24.177Z,2.66
2022-12-18T20:16:53.765Z,2.80
2022-12-18T20:19:22.687Z,2.93
2022-12-18T20:21:51.240Z,2.88
2022-12-18T20:24:21.926Z,2.67
2022-12-18T20:26:49.988Z,2.68
2022-12-18T20:29:20.689Z,2.65
2022-12-18T20:31:48.720Z,2.67
2022-12-18T20:34:16.978Z,2.48
2022-12-18T20:36:49.261Z,2.52
2022-12-18T20:39:17.995Z,2.46
2022-12-18T20:41:47.266Z,2.65
2022-12-18T20:44:22.372Z,2.51
2022-12-18T20:47:03.358Z,2.48
2022-12-18T20:49:36.490Z,2.34
2022-12-18T20:52:06.177Z,2.44
2022-12-18T20:54:34.140Z,2.45
2022-12-18T20:57:03.839Z,2.34
2022-12-18T20:59:31.808Z,2.37
2022-12-18T21:01:59.960Z,2.43
2022-12-18T21:04:31.100Z,2.59
2022-12-18T21:07:02.645Z,2.44
2022-12-18T21:09:37.610Z,2.50
2022-12-18T21:12:42.550Z,2.41
2022-12-18T21:15:22.847Z,2.52
2022-12-18T21:17:54.891Z,2.49
2022-12-18T21:20:23.093Z,2.34
2022-12-18T21:22:51.535Z,2.38
2022-12-18T21:25:21.910Z,2.46
2022-12-18T21:27:49.929Z,2.31
2022-12-18T21:30:18.002Z,2.28
2022-12-18T21:32:46.074Z,2.35
2022-12-18T21:35:14.132Z,2.35
2022-12-18T21:37:42.133Z,2.27
2022-12-18T21:40:10.664Z,2.01
2022-12-18T21:42:57.454Z,2.07
2022-12-18T21:45:25.538Z,1.92
2022-12-18T21:47:53.488Z,1.95
2022-12-18T21:50:21.478Z,1.97
2022-12-18T21:52:49.495Z,1.86
2022-12-18T21:55:17.470Z,1.86
2022-12-18T21:57:45.528Z,1.98
2022-12-18T22:00:17.461Z,2.01
2022-12-18T22:02:49.138Z,1.77
2022-12-18T22:05:37.151Z,1.91
2022-12-18T22:08:06.942Z,1.88
2022-12-18T22:10:36.025Z,1.99
2022-12-18T22:13:05.777Z,2.03
2022-12-18T22:15:33.964Z,2.03
2022-12-18T22:18:02.079Z,2.00
2022-12-18T22:20:30.254Z,1.84
2022-12-18T22:22:59.504Z,1.70
2022-12-18T22:25:30.801Z,1.64
2022-12-18T22:28:17.081Z,1.45
2022-12-18T22:30:45.072Z,1.33
2022-12-18T22:33:13.105Z,1.48
2022-12-18T22:36:07.572Z,1.54
2022-12-18T22:38:35.549Z,1.43
2022-12-18T22:41:03.510Z,1.48
2022-12-18T22:43:31.448Z,1.35
2022-12-18T22:46:03.142Z,1.44
2022-12-18T22:48:31.105Z,1.52
2022-12-18T22:50:59.707Z,1.69
2022-12-18T22:53:27.786Z,1.74
2022-12-18T22:56:03.636Z,1.80
2022-12-18T22:58:31.622Z,1.87
2022-12-18T23:00:59.557Z,2.07
2022-12-18T23:03:28.188Z,2.05
2022-12-18T23:06:03.383Z,2.16
2022-12-18T23:08:31.883Z,2.23
2022-12-18T23:11:00.574Z,2.55
2022-12-18T23:13:29.056Z,2.50
2022-12-18T23:15:57.044Z,2.49
2022-12-18T23:18:25.188Z,2.89
2022-12-18T23:20:53.071Z,2.94
2022-12-18T23:23:21.109Z,2.95
2022-12-18T23:25:49.022Z,3.24
2022-12-18T23:28:16.932Z,3.37
2022-12-18T23:30:44.827Z,3.14
2022-12-18T23:33:12.726Z,3.11
2022-12-18T23:35:40.839Z,3.01
2022-12-18T23:38:08.830Z,3.04
2022-12-18T23:40:37.872Z,3.06
2022-12-18T23:43:05.939Z,3.19
2022-12-18T23:45:37.691Z,3.15
2022-12-18T23:48:05.728Z,3.12
2022-12-18T23:50:35.725Z,3.30
2022-12-18T23:53:05.580Z,3.28
2022-12-18T23:55:39.520Z,3.17
2022-12-18T23:58:14.981Z,3.32
